Time;durP1;ratioP1;P1;durP2;ratioP2;P2;SDS_P1;SDS_P2;PMS_P1;PMS_P2;Temp;Humidity;BMP_temperature;BMP_pressure;BME280_temperature;BME280_humidity;BME280_pressure;Samples;Min_cycle;Max_cycle;Signal;HPM_P1;HPM_P2
2022/10/14 00:01:04;;;;;;;21.85;14.38;;;12.70;99.90;;;;;;5053315;28;20175;-80
2022/10/14 00:03:30;;;;;;;17.17;11.50;;;12.60;99.90;;;;;;5053547;28;20136;-79
2022/10/14 00:05:56;;;;;;;14.40;10.05;;;12.50;99.90;;;;;;5053222;28;20080;-78
2022/10/14 00:08:23;;;;;;;22.10;13.02;;;12.40;99.90;;;;;;5052462;28;20053;-79
2022/10/14 00:10:49;;;;;;;24.95;15.55;;;12.40;99.90;;;;;;5053175;28;20051;-78
2022/10/14 00:13:15;;;;;;;18.52;13.00;;;12.50;99.90;;;;;;5053276;28;20045;-79
2022/10/14 00:15:41;;;;;;;16.55;11.20;;;12.50;99.90;;;;;;5053351;28;20045;-80
2022/10/14 00:18:08;;;;;;;23.48;17.05;;;12.50;99.90;;;;;;5053035;28;20051;-79
2022/10/14 00:20:34;;;;;;;35.05;16.35;;;12.50;99.90;;;;;;5053161;28;20045;-79
2022/10/14 00:23:01;;;;;;;39.65;17.30;;;12.50;99.90;;;;;;5053153;28;20079;-79
2022/10/14 00:25:27;;;;;;;47.72;17.80;;;12.50;99.90;;;;;;5053041;28;20093;-78
2022/10/14 00:27:53;;;;;;;58.83;18.98;;;12.50;99.90;;;;;;5053106;28;20124;-79
2022/10/14 00:30:19;;;;;;;72.68;21.80;;;12.50;99.90;;;;;;5052988;28;20045;-79
2022/10/14 00:32:45;;;;;;;143.18;27.67;;;12.50;99.90;;;;;;5053278;28;20466;-78
2022/10/14 00:35:10;;;;;;;104.03;21.42;;;12.50;99.90;;;;;;5052801;28;20481;-78
2022/10/14 00:37:36;;;;;;;39.53;14.68;;;12.50;99.90;;;;;;5053362;28;20045;-78
2022/10/14 00:40:03;;;;;;;32.47;13.90;;;12.50;99.90;;;;;;5053196;28;20483;-79
2022/10/14 00:42:32;;;;;;;126.47;28.48;;;12.50;99.90;;;;;;5053327;28;20124;-79
2022/10/14 00:45:03;;;;;;;37.45;16.35;;;12.60;99.90;;;;;;5052533;28;20095;-80
2022/10/14 00:47:30;;;;;;;31.83;13.00;;;12.50;99.90;;;;;;5052811;28;20088;-79
2022/10/14 00:49:58;;;;;;;153.65;26.65;;;12.60;99.90;;;;;;5052612;28;20052;-79
2022/10/14 00:52:24;;;;;;;80.40;17.73;;;12.60;99.90;;;;;;5052718;28;20040;-79
2022/10/14 00:54:57;;;;;;;52.72;14.73;;;12.60;99.90;;;;;;5052337;28;20068;-79
2022/10/14 00:57:24;;;;;;;46.03;16.63;;;12.50;99.90;;;;;;5052598;28;20087;-79
2022/10/14 00:59:52;;;;;;;37.45;14.55;;;12.60;99.90;;;;;;5052369;28;20044;-80
2022/10/14 01:02:18;;;;;;;122.03;22.75;;;12.60;99.90;;;;;;5052160;28;20458;-79
2022/10/14 01:04:45;;;;;;;40.83;14.07;;;12.50;99.90;;;;;;5052802;28;20175;-79
2022/10/14 01:07:15;;;;;;;27.48;11.40;;;12.50;99.90;;;;;;5052257;28;20056;-78
2022/10/14 01:09:58;;;;;;;59.60;16.42;;;12.50;99.90;;;;;;5052071;28;20429;-79
2022/10/14 01:13:01;;;;;;;32.75;12.40;;;12.50;99.90;;;;;;5052468;28;20563;-79
2022/10/14 01:15:51;;;;;;;18.83;8.50;;;12.50;99.90;;;;;;5052378;28;20057;-78
2022/10/14 01:18:26;;;;;;;36.28;12.02;;;12.50;99.90;;;;;;5052556;28;20045;-79
2022/10/14 01:20:57;;;;;;;22.23;9.52;;;12.40;99.90;;;;;;5052734;28;20056;-79
2022/10/14 01:23:32;;;;;;;26.67;9.40;;;12.40;99.90;;;;;;5052135;28;20041;-80
2022/10/14 01:26:18;;;;;;;31.10;11.02;;;12.40;99.90;;;;;;5052239;28;20061;-79
2022/10/14 01:28:54;;;;;;;19.85;10.48;;;12.50;99.90;;;;;;5052227;28;20057;-79
2022/10/14 01:31:30;;;;;;;44.45;12.18;;;12.40;99.90;;;;;;5052298;28;20069;-79
2022/10/14 01:33:58;;;;;;;48.08;14.23;;;12.40;99.90;;;;;;5052479;28;20071;-79
2022/10/14 01:36:32;;;;;;;39.25;10.35;;;12.50;99.90;;;;;;5051899;28;20540;-79
2022/10/14 01:39:30;;;;;;;40.00;12.02;;;12.40;99.90;;;;;;5052486;28;20037;-80
2022/10/14 01:42:04;;;;;;;42.03;10.65;;;12.40;99.90;;;;;;5051758;28;20499;-79
2022/10/14 01:44:31;;;;;;;46.50;12.23;;;12.30;99.90;;;;;;5052293;28;20049;-79
2022/10/14 01:46:59;;;;;;;64.80;13.50;;;12.30;99.90;;;;;;5052123;28;20056;-79
2022/10/14 01:49:30;;;;;;;41.45;11.18;;;12.30;99.90;;;;;;5052091;28;20124;-79
2022/10/14 01:52:12;;;;;;;48.17;12.77;;;12.20;99.90;;;;;;5052285;28;20049;-79
2022/10/14 01:54:41;;;;;;;15.10;6.68;;;12.20;99.90;;;;;;5052104;28;20053;-79
2022/10/14 01:57:12;;;;;;;67.95;14.80;;;12.20;99.90;;;;;;5054274;28;20132;-80
2022/10/14 01:59:38;;;;;;;60.20;13.82;;;12.20;99.90;;;;;;5055984;28;20040;-80
2022/10/14 02:02:04;;;;;;;37.80;10.07;;;12.10;99.90;;;;;;5056096;28;20048;-79
2022/10/14 02:04:30;;;;;;;23.63;8.40;;;12.20;99.90;;;;;;5055769;28;20043;-80
2022/10/14 02:07:04;;;;;;;27.42;9.82;;;12.10;99.90;;;;;;5056232;28;20063;-81
2022/10/14 02:09:46;;;;;;;34.00;10.00;;;12.10;99.90;;;;;;5055803;28;20544;-79
2022/10/14 02:12:27;;;;;;;76.10;12.43;;;12.10;99.90;;;;;;5055910;28;20053;-79
2022/10/14 02:15:11;;;;;;;76.35;13.38;;;12.00;99.90;;;;;;5071443;28;20084;-79
2022/10/14 02:17:54;;;;;;;29.50;8.13;;;12.00;99.90;;;;;;5055953;28;20049;-80
2022/10/14 02:20:33;;;;;;;50.63;11.65;;;12.00;99.90;;;;;;5088394;28;20433;-79
2022/10/14 02:23:09;;;;;;;17.67;8.20;;;11.90;99.90;;;;;;5055619;28;20095;-79
2022/10/14 02:25:38;;;;;;;9.02;6.03;;;11.90;99.90;;;;;;5055661;28;20469;-79
2022/10/14 02:28:07;;;;;;;31.77;8.52;;;12.00;99.90;;;;;;5088429;28;20049;-78
2022/10/14 02:30:39;;;;;;;32.20;9.43;;;11.90;99.90;;;;;;5055675;28;20056;-79
2022/10/14 02:33:06;;;;;;;46.95;12.07;;;11.90;99.90;;;;;;5055931;28;20134;-79
2022/10/14 02:35:33;;;;;;;21.85;7.07;;;11.80;99.90;;;;;;5055267;28;20052;-79
2022/10/14 02:37:59;;;;;;;37.58;7.65;;;11.90;99.90;;;;;;5055069;28;20088;-79
2022/10/14 02:40:42;;;;;;;33.03;7.43;;;11.90;99.90;;;;;;5054982;28;20048;-80
2022/10/14 02:43:10;;;;;;;14.80;6.28;;;11.80;99.90;;;;;;5055555;28;20429;-79
2022/10/14 02:45:36;;;;;;;62.83;11.07;;;11.90;99.90;;;;;;5055011;28;20048;-80
2022/10/14 02:48:03;;;;;;;34.45;8.20;;;11.90;99.90;;;;;;5055491;28;20068;-79
2022/10/14 02:50:29;;;;;;;45.85;10.43;;;11.90;99.90;;;;;;5055172;28;20053;-79
2022/10/14 02:52:54;;;;;;;57.17;12.35;;;11.80;99.90;;;;;;5055250;28;20515;-79
2022/10/14 02:55:20;;;;;;;16.50;5.80;;;11.80;99.90;;;;;;5054605;28;20057;-79
2022/10/14 02:57:46;;;;;;;14.50;5.80;;;11.90;99.90;;;;;;5053974;28;20360;-79
2022/10/14 03:00:12;;;;;;;31.75;8.20;;;11.80;99.90;;;;;;5055164;28;20056;-79
2022/10/14 03:02:38;;;;;;;43.95;8.63;;;11.80;99.90;;;;;;5054744;28;20056;-79
2022/10/14 03:05:04;;;;;;;48.13;10.32;;;11.80;99.90;;;;;;5054607;28;20079;-79
2022/10/14 03:07:30;;;;;;;105.78;15.80;;;11.80;99.90;;;;;;5053314;28;20049;-79
2022/10/14 03:09:55;;;;;;;27.08;8.18;;;11.60;99.90;;;;;;5054201;28;20048;-79
2022/10/14 03:12:21;;;;;;;124.47;16.23;;;11.70;99.90;;;;;;5054945;28;20106;-80
2022/10/14 03:14:46;;;;;;;42.33;8.30;;;11.70;99.90;;;;;;5054524;28;20051;-79
2022/10/14 03:17:12;;;;;;;26.10;7.47;;;11.60;99.90;;;;;;5054483;28;20131;-80
2022/10/14 03:19:38;;;;;;;18.52;7.18;;;11.70;99.90;;;;;;5054333;28;20041;-80
2022/10/14 03:22:03;;;;;;;133.95;17.15;;;11.70;99.90;;;;;;5054272;28;20045;-79
2022/10/14 03:24:29;;;;;;;37.47;9.43;;;11.60;99.90;;;;;;5054677;28;20045;-79
2022/10/14 03:26:55;;;;;;;27.73;7.57;;;11.60;99.90;;;;;;5054564;28;20496;-79
2022/10/14 03:29:20;;;;;;;22.17;7.60;;;11.70;99.90;;;;;;5053468;28;20041;-79
2022/10/14 03:31:46;;;;;;;43.20;10.15;;;11.70;99.90;;;;;;5054123;28;20095;-78
2022/10/14 03:34:12;;;;;;;38.47;11.38;;;11.70;99.90;;;;;;5054505;28;20044;-79
2022/10/14 03:36:37;;;;;;;37.35;9.95;;;11.70;99.90;;;;;;5053988;28;20049;-79
2022/10/14 03:39:03;;;;;;;40.97;9.80;;;11.70;99.90;;;;;;5054305;28;20033;-79
2022/10/14 03:41:29;;;;;;;78.65;14.98;;;11.70;99.90;;;;;;5054303;28;20137;-79
2022/10/14 03:43:55;;;;;;;46.20;11.13;;;11.70;99.90;;;;;;5054414;28;20049;-79
2022/10/14 03:46:20;;;;;;;68.30;12.98;;;11.70;99.90;;;;;;5054401;28;20045;-79
2022/10/14 03:48:46;;;;;;;33.58;9.48;;;11.70;99.90;;;;;;5053523;28;20052;-79
2022/10/14 03:51:12;;;;;;;64.03;13.02;;;11.70;99.90;;;;;;5086463;28;20045;-80
2022/10/14 03:53:38;;;;;;;44.33;10.43;;;11.70;99.90;;;;;;5053773;28;20076;-79
2022/10/14 03:56:04;;;;;;;22.52;7.85;;;11.70;99.90;;;;;;5053913;28;20064;-79
2022/10/14 03:58:29;;;;;;;19.25;6.38;;;11.80;99.90;;;;;;5053668;28;20511;-79
2022/10/14 04:00:55;;;;;;;51.60;10.95;;;11.80;99.90;;;;;;5053799;28;20102;-80
2022/10/14 04:03:21;;;;;;;54.58;11.15;;;11.80;99.90;;;;;;5053769;28;20467;-80
2022/10/14 04:05:46;;;;;;;29.02;8.48;;;11.80;99.90;;;;;;5053523;28;20486;-78
2022/10/14 04:08:12;;;;;;;32.17;8.35;;;11.80;99.90;;;;;;5053446;28;20048;-80
2022/10/14 04:10:38;;;;;;;75.25;12.20;;;11.80;99.90;;;;;;5052760;28;20040;-79
2022/10/14 04:13:03;;;;;;;38.13;8.35;;;11.80;99.90;;;;;;5053213;28;20052;-80
2022/10/14 04:15:29;;;;;;;47.35;11.00;;;11.80;99.90;;;;;;5053680;28;20106;-78
2022/10/14 04:17:55;;;;;;;39.30;9.93;;;11.70;99.90;;;;;;5053284;28;20052;-79
2022/10/14 04:20:21;;;;;;;18.88;7.93;;;11.60;99.90;;;;;;5052887;28;20490;-80
2022/10/14 04:22:47;;;;;;;16.80;7.07;;;11.60;99.90;;;;;;5053238;28;20041;-78
2022/10/14 04:25:13;;;;;;;22.90;7.60;;;11.50;99.90;;;;;;5053583;28;20057;-79
2022/10/14 04:27:38;;;;;;;16.40;7.38;;;11.50;99.90;;;;;;5053039;28;20141;-79
2022/10/14 04:30:05;;;;;;;35.40;7.95;;;11.40;99.90;;;;;;5053072;28;20047;-80
2022/10/14 04:32:31;;;;;;;14.90;6.43;;;11.50;99.90;;;;;;5053284;28;20052;-78
2022/10/14 04:34:56;;;;;;;24.50;8.93;;;11.40;99.90;;;;;;5053007;28;20383;-79
2022/10/14 04:37:22;;;;;;;33.80;9.10;;;11.40;99.90;;;;;;5052900;28;20534;-79
2022/10/14 04:39:48;;;;;;;49.47;10.20;;;11.50;99.90;;;;;;5052664;28;20120;-79
2022/10/14 04:42:13;;;;;;;78.57;11.63;;;11.50;99.90;;;;;;5052839;28;20045;-79
2022/10/14 04:44:39;;;;;;;23.00;7.82;;;11.50;99.90;;;;;;5053514;28;20048;-78
2022/10/14 04:47:05;;;;;;;65.28;12.30;;;11.50;99.90;;;;;;5052434;28;20041;-80
2022/10/14 04:49:31;;;;;;;19.60;6.95;;;11.50;99.90;;;;;;5052900;28;20048;-79
2022/10/14 04:51:56;;;;;;;69.53;10.45;;;11.50;99.90;;;;;;5052700;28;20588;-79
2022/10/14 04:54:22;;;;;;;13.70;7.72;;;11.60;99.90;;;;;;5052457;28;20049;-78
2022/10/14 04:56:48;;;;;;;51.70;11.32;;;11.60;99.90;;;;;;5053261;28;20439;-78
2022/10/14 04:59:13;;;;;;;49.28;10.20;;;11.60;99.90;;;;;;5052942;28;20060;-80
2022/10/14 05:01:39;;;;;;;47.60;10.10;;;11.50;99.90;;;;;;5052595;28;20063;-78
2022/10/14 05:04:05;;;;;;;45.80;9.57;;;11.50;99.90;;;;;;5052509;28;20128;-80
2022/10/14 05:06:30;;;;;;;20.00;8.13;;;11.60;99.90;;;;;;5052547;28;20071;-78
2022/10/14 05:08:56;;;;;;;18.77;7.82;;;11.60;99.90;;;;;;5052342;28;20047;-78
2022/10/14 05:11:22;;;;;;;80.53;11.77;;;11.60;99.90;;;;;;5053106;28;20044;-78
2022/10/14 05:13:48;;;;;;;29.67;8.50;;;11.60;99.90;;;;;;5052332;28;20085;-78
2022/10/14 05:16:13;;;;;;;25.67;8.82;;;11.80;99.90;;;;;;5052296;28;20048;-80
2022/10/14 05:18:39;;;;;;;29.83;9.63;;;11.60;99.90;;;;;;5052213;28;20086;-79
2022/10/14 05:21:05;;;;;;;26.88;9.60;;;11.60;99.90;;;;;;5052299;28;20044;-78
2022/10/14 05:23:31;;;;;;;31.40;9.75;;;11.50;99.90;;;;;;5052726;28;20048;-78
2022/10/14 05:25:56;;;;;;;40.05;10.90;;;11.60;99.90;;;;;;5052196;28;20534;-78
2022/10/14 05:28:22;;;;;;;25.75;10.25;;;11.60;99.90;;;;;;5052390;28;20099;-79
2022/10/14 05:30:48;;;;;;;28.20;9.63;;;11.60;99.90;;;;;;5052416;28;20499;-77
2022/10/14 05:33:14;;;;;;;23.13;11.73;;;11.60;99.90;;;;;;5056316;28;20122;-77
2022/10/14 05:35:41;;;;;;;23.73;10.82;;;11.50;99.90;;;;;;5056258;28;20037;-79
2022/10/14 05:38:07;;;;;;;26.25;10.45;;;11.50;99.90;;;;;;5056134;28;20084;-80
2022/10/14 05:40:33;;;;;;;41.45;13.40;;;11.60;99.90;;;;;;5056155;28;20045;-78
2022/10/14 05:42:58;;;;;;;35.28;11.43;;;11.50;99.90;;;;;;5056119;28;20132;-78
2022/10/14 05:45:25;;;;;;;12.13;9.40;;;11.50;99.90;;;;;;5056130;28;20060;-78
2022/10/14 05:47:51;;;;;;;21.58;10.45;;;11.50;99.90;;;;;;5056575;28;20404;-78
2022/10/14 05:50:17;;;;;;;25.48;12.38;;;11.60;99.90;;;;;;5056053;28;20041;-77
2022/10/14 05:52:43;;;;;;;25.17;11.82;;;11.60;99.90;;;;;;5055877;28;20045;-80
2022/10/14 05:55:09;;;;;;;20.08;11.00;;;11.60;99.90;;;;;;5054454;28;20053;-79
2022/10/14 05:57:35;;;;;;;24.63;11.98;;;11.70;99.90;;;;;;5056030;28;20053;-80
2022/10/14 06:00:01;;;;;;;19.23;11.20;;;11.70;99.90;;;;;;5055802;28;20041;-79
2022/10/14 06:02:26;;;;;;;28.08;11.27;;;11.60;99.90;;;;;;5054876;28;20102;-80
2022/10/14 06:04:52;;;;;;;19.25;11.18;;;11.70;99.90;;;;;;5055744;28;20128;-81
2022/10/14 06:07:18;;;;;;;35.13;14.82;;;11.60;99.90;;;;;;5055621;28;20045;-78
2022/10/14 06:09:44;;;;;;;29.92;10.90;;;11.70;99.90;;;;;;5055964;28;20127;-82
2022/10/14 06:12:10;;;;;;;21.13;11.60;;;11.60;99.90;;;;;;5055672;28;20037;-78
2022/10/14 06:14:38;;;;;;;32.92;13.98;;;11.70;99.90;;;;;;5055635;28;20499;-79
2022/10/14 06:17:05;;;;;;;33.85;14.05;;;11.70;99.90;;;;;;5055856;28;20044;-79
2022/10/14 06:19:32;;;;;;;38.50;16.00;;;11.70;99.90;;;;;;5055463;28;20041;-80
2022/10/14 06:21:58;;;;;;;24.40;13.18;;;11.70;99.90;;;;;;5055894;28;20049;-79
2022/10/14 06:24:23;;;;;;;20.30;12.10;;;11.70;99.90;;;;;;5055916;28;20056;-79
2022/10/14 06:26:49;;;;;;;40.00;14.85;;;11.70;99.90;;;;;;5055170;28;20072;-80
2022/10/14 06:29:15;;;;;;;42.78;15.05;;;11.70;99.90;;;;;;5055400;28;20048;-78
2022/10/14 06:31:41;;;;;;;31.92;13.77;;;11.70;99.90;;;;;;5055572;28;20045;-79
2022/10/14 06:34:07;;;;;;;26.27;14.38;;;11.70;99.90;;;;;;5054009;28;20132;-77
2022/10/14 06:36:33;;;;;;;43.15;18.38;;;11.70;99.90;;;;;;5055065;28;20045;-78
2022/10/14 06:38:59;;;;;;;38.83;18.27;;;11.80;99.90;;;;;;5054567;28;20468;-79
2022/10/14 06:41:25;;;;;;;33.03;16.92;;;11.80;99.90;;;;;;5054803;28;20087;-79
2022/10/14 06:43:52;;;;;;;27.55;14.18;;;11.80;99.90;;;;;;5054465;28;20044;-78
2022/10/14 06:46:17;;;;;;;28.10;14.10;;;12.50;99.90;;;;;;5053715;28;20041;-78
2022/10/14 06:48:43;;;;;;;27.83;16.00;;;11.80;99.90;;;;;;5055098;28;20041;-79
2022/10/14 06:51:09;;;;;;;27.23;13.93;;;11.80;99.90;;;;;;5055322;28;20080;-78
2022/10/14 06:53:35;;;;;;;36.88;15.63;;;11.80;99.90;;;;;;5054769;28;20080;-79
2022/10/14 06:56:03;;;;;;;31.60;15.50;;;11.80;99.90;;;;;;5054555;28;20106;-78
2022/10/14 06:58:29;;;;;;;31.15;14.52;;;11.70;99.90;;;;;;5054890;28;20049;-77
2022/10/14 07:01:03;;;;;;;28.70;14.73;;;11.70;99.90;;;;;;5054466;28;20140;-79
2022/10/14 07:03:30;;;;;;;26.55;14.02;;;11.80;99.90;;;;;;5054370;28;20123;-78
2022/10/14 07:05:55;;;;;;;23.83;11.95;;;11.80;99.90;;;;;;5054540;28;20111;-78
2022/10/14 07:08:21;;;;;;;29.35;15.38;;;11.80;99.90;;;;;;5054663;28;20041;-78
2022/10/14 07:10:47;;;;;;;33.47;15.43;;;11.90;99.90;;;;;;5054490;28;20123;-79
2022/10/14 07:13:13;;;;;;;27.10;16.27;;;11.90;99.90;;;;;;5054381;28;20128;-79
2022/10/14 07:15:39;;;;;;;31.27;18.10;;;12.00;99.90;;;;;;5054278;28;20087;-79
2022/10/14 07:18:05;;;;;;;33.78;18.05;;;12.00;99.90;;;;;;5054151;28;20045;-79
2022/10/14 07:20:33;;;;;;;35.03;18.23;;;12.00;99.90;;;;;;5054312;28;20052;-78
2022/10/14 07:22:59;;;;;;;29.05;18.30;;;12.10;99.90;;;;;;5054081;28;20056;-79
2022/10/14 07:25:24;;;;;;;25.80;16.95;;;12.10;99.90;;;;;;5054221;28;20052;-79
2022/10/14 07:27:53;;;;;;;36.58;18.77;;;12.20;99.90;;;;;;5054789;28;20045;-78
2022/10/14 07:30:19;;;;;;;30.33;16.65;;;12.20;99.90;;;;;;5053996;28;20037;-78
2022/10/14 07:32:44;;;;;;;27.77;15.57;;;12.20;99.90;;;;;;5053990;28;20051;-78
2022/10/14 07:35:10;;;;;;;30.00;16.23;;;12.30;99.90;;;;;;5053963;28;20052;-79
2022/10/14 07:37:36;;;;;;;26.52;15.23;;;12.30;99.90;;;;;;5053885;28;20064;-78
2022/10/14 07:40:02;;;;;;;25.30;15.77;;;12.40;99.90;;;;;;5053626;28;20566;-78
2022/10/14 07:42:28;;;;;;;29.85;16.45;;;12.40;99.90;;;;;;5054175;28;20473;-79
2022/10/14 07:44:54;;;;;;;25.90;14.82;;;12.40;99.90;;;;;;5054208;28;20045;-78
2022/10/14 07:47:20;;;;;;;24.73;14.38;;;12.40;99.90;;;;;;5053915;28;20489;-78
2022/10/14 07:49:46;;;;;;;24.90;15.15;;;12.40;99.90;;;;;;5053798;28;20475;-78
2022/10/14 07:52:11;;;;;;;28.60;16.13;;;12.40;99.90;;;;;;5054070;28;20060;-78
2022/10/14 07:54:37;;;;;;;32.33;16.70;;;12.40;99.90;;;;;;5053351;28;20052;-79
2022/10/14 07:57:03;;;;;;;31.48;17.83;;;12.40;99.90;;;;;;5055400;28;20080;-79
2022/10/14 07:59:29;;;;;;;26.85;15.20;;;12.40;99.90;;;;;;5054680;28;20041;-79
2022/10/14 08:01:55;;;;;;;32.83;17.50;;;12.50;99.90;;;;;;5053984;28;20142;-78
2022/10/14 08:04:23;;;;;;;27.38;16.50;;;12.40;99.90;;;;;;5053590;28;20049;-78
2022/10/14 08:06:50;;;;;;;26.75;16.50;;;12.50;99.90;;;;;;5053077;28;20531;-78
2022/10/14 08:09:18;;;;;;;31.30;18.70;;;12.50;99.90;;;;;;5053295;28;20048;-79
2022/10/14 08:11:44;;;;;;;25.48;15.13;;;12.60;99.90;;;;;;5053343;28;20044;-78
2022/10/14 08:14:10;;;;;;;26.95;14.45;;;12.60;99.90;;;;;;5054004;28;20053;-79
2022/10/14 08:16:37;;;;;;;27.17;17.27;;;12.70;99.90;;;;;;5053788;28;20505;-79
2022/10/14 08:19:06;;;;;;;25.10;14.23;;;12.70;99.90;;;;;;5053777;28;20045;-80
2022/10/14 08:21:32;;;;;;;27.55;14.75;;;12.80;99.90;;;;;;5053318;28;20080;-79
2022/10/14 08:23:57;;;;;;;28.73;15.65;;;12.90;99.90;;;;;;5053178;28;20052;-80
2022/10/14 08:26:34;;;;;;;21.27;13.57;;;12.90;99.90;;;;;;5053537;28;20049;-80
2022/10/14 08:29:02;;;;;;;27.67;16.27;;;13.00;99.90;;;;;;5053715;28;20044;-76
2022/10/14 08:31:29;;;;;;;25.55;13.65;;;13.10;99.90;;;;;;5053436;28;20049;-79
2022/10/14 08:33:55;;;;;;;24.17;14.25;;;13.10;99.90;;;;;;5053160;28;20051;-79
2022/10/14 08:36:21;;;;;;;24.75;15.05;;;13.20;99.90;;;;;;5052861;28;20048;-79
2022/10/14 08:38:49;;;;;;;24.42;14.07;;;13.20;99.90;;;;;;5052828;28;20051;-80
2022/10/14 08:41:25;;;;;;;24.67;13.55;;;13.20;99.90;;;;;;5052849;28;20132;-79
2022/10/14 08:44:18;;;;;;;29.95;15.60;;;13.40;99.90;;;;;;5053529;28;20087;-78
2022/10/14 08:46:49;;;;;;;25.42;14.32;;;13.40;99.90;;;;;;5053720;28;20045;-79
2022/10/14 08:49:31;;;;;;;23.15;14.82;;;13.40;99.90;;;;;;5054135;28;20049;-80
2022/10/14 08:52:06;;;;;;;23.25;14.20;;;13.40;99.90;;;;;;5053410;28;20048;-80
2022/10/14 08:54:39;;;;;;;26.00;15.20;;;13.50;99.90;;;;;;5054252;28;20052;-80
2022/10/14 08:57:13;;;;;;;25.48;13.55;;;13.50;99.90;;;;;;5054156;28;20106;-80
2022/10/14 08:59:40;;;;;;;23.05;13.05;;;13.50;99.90;;;;;;5054116;28;20041;-80
2022/10/14 09:02:44;;;;;;;28.23;14.15;;;13.40;99.90;;;;;;5054332;28;20084;-79
2022/10/14 09:05:16;;;;;;;25.60;14.05;;;13.40;99.90;;;;;;5051642;28;20052;-79
2022/10/14 09:07:43;;;;;;;29.25;15.63;;;13.50;99.90;;;;;;5052392;28;20059;-78
2022/10/14 09:10:30;;;;;;;23.33;14.02;;;13.60;99.90;;;;;;5052403;28;20041;-80
2022/10/14 09:13:02;;;;;;;21.80;14.57;;;13.60;99.90;;;;;;5053357;28;20075;-80
2022/10/14 09:15:35;;;;;;;20.98;11.98;;;13.70;99.90;;;;;;5052679;28;20120;-80
2022/10/14 09:18:10;;;;;;;24.45;15.10;;;13.70;99.90;;;;;;5052881;28;20045;-79
2022/10/14 09:20:36;;;;;;;25.30;14.68;;;13.70;99.90;;;;;;5052250;28;20037;-79
2022/10/14 09:23:24;;;;;;;24.75;14.32;;;13.80;99.90;;;;;;5052606;28;20171;-79
2022/10/14 09:25:59;;;;;;;25.73;15.80;;;14.00;99.90;;;;;;5052278;28;20045;-79
2022/10/14 09:28:37;;;;;;;23.63;13.88;;;14.20;99.90;;;;;;5052325;28;20461;-80
2022/10/14 09:31:06;;;;;;;27.90;15.13;;;14.20;99.90;;;;;;5051457;28;20075;-79
2022/10/14 09:33:33;;;;;;;27.35;15.10;;;14.20;99.90;;;;;;5053470;28;20053;-79
2022/10/14 09:35:59;;;;;;;21.13;13.27;;;14.10;99.90;;;;;;5052828;28;20114;-80
2022/10/14 09:38:25;;;;;;;24.08;14.10;;;14.10;99.90;;;;;;5052244;28;20140;-80
2022/10/14 09:40:59;;;;;;;22.40;14.02;;;14.10;99.90;;;;;;5052222;28;20041;-79
2022/10/14 09:43:25;;;;;;;25.17;14.23;;;14.00;99.90;;;;;;5052392;28;20041;-80
2022/10/14 09:46:00;;;;;;;22.80;13.73;;;14.10;99.90;;;;;;5051165;28;20175;-79
2022/10/14 09:48:47;;;;;;;23.85;14.18;;;14.10;99.90;;;;;;5052322;28;20097;-79
2022/10/14 09:51:20;;;;;;;21.98;14.70;;;14.10;99.90;;;;;;5052386;28;20076;-79
2022/10/14 09:53:57;;;;;;;26.92;15.45;;;14.10;99.90;;;;;;5051928;28;20049;-80
2022/10/14 09:56:41;;;;;;;22.02;12.50;;;14.10;99.90;;;;;;5067046;28;20124;-80
2022/10/14 09:59:23;;;;;;;23.02;15.55;;;14.00;99.90;;;;;;5052392;28;20041;-79
2022/10/14 10:02:04;;;;;;;25.77;14.00;;;14.00;99.90;;;;;;5052116;28;20410;-79
2022/10/14 10:04:46;;;;;;;23.17;14.18;;;14.10;99.90;;;;;;5052242;28;20040;-78
2022/10/14 10:07:31;;;;;;;21.98;14.63;;;14.10;99.90;;;;;;5051488;28;20533;-79
2022/10/14 10:09:59;;;;;;;28.60;16.90;;;14.00;99.90;;;;;;5051872;28;20045;-79
2022/10/14 10:12:33;;;;;;;24.63;16.17;;;14.10;99.90;;;;;;5051827;28;20049;-79
2022/10/14 10:15:02;;;;;;;27.67;15.30;;;14.00;99.90;;;;;;5052488;28;20040;-78
2022/10/14 10:17:31;;;;;;;26.98;15.70;;;14.00;99.90;;;;;;5053048;28;20060;-78
2022/10/14 10:20:19;;;;;;;28.25;14.05;;;14.00;99.90;;;;;;5055422;28;20087;-78
2022/10/14 10:22:45;;;;;;;25.45;15.40;;;13.90;99.90;;;;;;5045603;28;20061;-80
2022/10/14 10:25:11;;;;;;;26.15;15.57;;;13.90;99.90;;;;;;5055494;28;20082;-77
2022/10/14 10:27:39;;;;;;;28.88;16.42;;;13.80;99.90;;;;;;5055974;28;20053;-78
2022/10/14 10:30:17;;;;;;;29.50;17.10;;;13.90;99.90;;;;;;5055727;28;20037;-80
2022/10/14 10:33:07;;;;;;;24.38;15.68;;;13.90;99.90;;;;;;5055707;28;20040;-82
2022/10/14 10:35:46;;;;;;;22.85;14.50;;;13.90;99.90;;;;;;5054273;28;20420;-81
2022/10/14 10:38:21;;;;;;;23.10;13.55;;;14.00;99.90;;;;;;5055121;28;20049;-79
2022/10/14 10:41:02;;;;;;;27.20;15.23;;;13.90;99.90;;;;;;5055224;28;20406;-78
2022/10/14 10:43:56;;;;;;;23.48;14.38;;;13.90;99.90;;;;;;5055210;28;20080;-78
2022/10/14 10:46:34;;;;;;;27.27;15.27;;;13.80;99.90;;;;;;5031623;28;20526;-76
2022/10/14 10:49:09;;;;;;;26.98;13.93;;;13.70;99.90;;;;;;5054828;28;20068;-81
2022/10/14 10:51:43;;;;;;;23.95;14.25;;;13.70;99.90;;;;;;5055221;28;20053;-78
2022/10/14 10:54:37;;;;;;;22.08;12.18;;;13.60;99.90;;;;;;5054740;28;20041;-82
2022/10/14 10:57:23;;;;;;;24.92;13.02;;;13.60;99.90;;;;;;5055500;28;20049;-80
2022/10/14 11:00:09;;;;;;;25.88;15.25;;;13.60;99.90;;;;;;5055385;28;20459;-81
2022/10/14 11:02:53;;;;;;;20.85;12.85;;;13.60;99.90;;;;;;5055144;28;20053;-80
2022/10/14 11:05:42;;;;;;;28.98;14.63;;;13.70;99.90;;;;;;5054722;28;20414;-81
2022/10/14 11:14:37;;;;;;;29.52;14.88;;;13.60;99.90;;;;;;5054959;28;20049;-78
2022/10/14 11:17:33;;;;;;;28.63;15.38;;;13.60;99.90;;;;;;5054881;28;20435;-79
2022/10/14 11:20:22;;;;;;;28.67;15.23;;;13.50;99.90;;;;;;5054623;28;20037;-79
2022/10/14 11:23:25;;;;;;;29.42;16.33;;;13.50;99.90;;;;;;5054256;28;20045;-79
2022/10/14 11:26:09;;;;;;;33.13;16.73;;;13.60;99.90;;;;;;5030239;28;20061;-73
2022/10/14 11:28:58;;;;;;;29.63;15.73;;;13.50;99.90;;;;;;5054278;28;20129;-75
2022/10/14 11:32:03;;;;;;;26.73;15.13;;;13.50;99.90;;;;;;5054739;28;20060;-81
2022/10/14 11:34:51;;;;;;;30.80;17.00;;;13.50;99.90;;;;;;5054465;28;20146;-79
2022/10/14 11:37:23;;;;;;;31.83;17.00;;;13.60;99.90;;;;;;5053976;28;20044;-74
2022/10/14 11:39:54;;;;;;;28.48;16.23;;;13.60;99.90;;;;;;5053875;28;20134;-78
2022/10/14 11:42:26;;;;;;;29.85;16.20;;;13.60;99.90;;;;;;5054185;28;20048;-79
2022/10/14 11:45:16;;;;;;;25.27;15.35;;;13.70;99.90;;;;;;5053865;28;20479;-73
2022/10/14 11:47:45;;;;;;;27.70;15.05;;;13.70;99.90;;;;;;5054270;28;20556;-76
2022/10/14 11:50:20;;;;;;;30.85;16.92;;;13.70;99.90;;;;;;5053874;28;20052;-75
2022/10/14 11:53:00;;;;;;;24.20;14.82;;;13.80;99.90;;;;;;5053977;28;20115;-82
2022/10/14 11:55:32;;;;;;;29.30;17.17;;;13.80;99.90;;;;;;5052778;28;20050;-78
2022/10/14 11:58:04;;;;;;;26.60;14.47;;;13.90;99.90;;;;;;5053514;28;20518;-82
2022/10/14 12:00:34;;;;;;;22.63;14.82;;;13.90;99.90;;;;;;5053626;28;20321;-79
2022/10/14 12:03:14;;;;;;;25.67;14.30;;;14.00;99.90;;;;;;5053767;28;20098;-79
2022/10/14 12:05:55;;;;;;;23.42;12.48;;;14.00;99.90;;;;;;5052989;28;20518;-80
2022/10/14 12:08:46;;;;;;;22.17;13.75;;;13.90;99.90;;;;;;5053189;28;20497;-78
2022/10/14 12:11:28;;;;;;;23.67;13.77;;;13.90;99.90;;;;;;5053240;28;20041;-76
2022/10/14 12:14:21;;;;;;;24.17;13.02;;;13.90;99.90;;;;;;5053647;28;20466;-78
2022/10/14 12:16:48;;;;;;;20.05;11.77;;;13.90;99.90;;;;;;5053465;28;20049;-77
2022/10/14 12:19:21;;;;;;;21.85;12.32;;;13.90;99.90;;;;;;5053121;28;20098;-79
2022/10/14 12:21:56;;;;;;;19.63;11.57;;;13.90;99.90;;;;;;5053374;28;20106;-76
2022/10/14 12:24:28;;;;;;;19.65;12.23;;;14.00;99.90;;;;;;5053133;28;20044;-75
2022/10/14 12:26:56;;;;;;;23.50;15.25;;;13.90;99.90;;;;;;5053074;28;20095;-78
2022/10/14 12:29:27;;;;;;;19.67;13.05;;;13.90;99.90;;;;;;5053045;28;20045;-78
2022/10/14 12:32:06;;;;;;;24.85;14.27;;;14.00;99.90;;;;;;5053313;28;20084;-78
2022/10/14 12:34:37;;;;;;;22.77;13.68;;;14.00;99.90;;;;;;5053272;28;20052;-76
2022/10/14 12:37:24;;;;;;;21.13;14.25;;;14.00;99.90;;;;;;5053027;28;20041;-77
2022/10/14 12:39:52;;;;;;;23.85;14.07;;;13.90;99.90;;;;;;5052786;28;20087;-77
2022/10/14 12:42:19;;;;;;;27.60;16.90;;;13.90;99.90;;;;;;5052765;28;20057;-76
2022/10/14 12:44:55;;;;;;;28.20;16.80;;;13.90;99.90;;;;;;5052270;28;20091;-81
2022/10/14 12:47:36;;;;;;;27.75;15.88;;;14.00;99.90;;;;;;5052841;28;20049;-78
2022/10/14 12:50:14;;;;;;;32.67;17.58;;;14.00;99.90;;;;;;5052618;28;20047;-79
2022/10/14 12:52:44;;;;;;;32.00;18.65;;;14.00;99.90;;;;;;5052447;28;20041;-79